Time;durP1;ratioP1;P1;durP2;ratioP2;P2;SDS_P1;SDS_P2;PMS_P1;PMS_P2;Temp;Humidity;BMP_temperature;BMP_pressure;BME280_temperature;BME280_humidity;BME280_pressure;Samples;Min_cycle;Max_cycle;Signal;HPM_P1;HPM_P2
2023/12/03 00:01:49;;;;;;;;;;;;;;;9.17;50.81;100761.97;4947823;28;98143;-70
2023/12/03 00:04:15;;;;;;;;;;;;;;;9.15;50.91;100760.56;4932628;28;123140;-70
2023/12/03 00:06:41;;;;;;;;;;;;;;;9.13;51.39;100768.09;4933148;28;122647;-70
2023/12/03 00:09:06;;;;;;;;;;;;;;;9.10;50.95;100764.00;4951591;28;114757;-66
2023/12/03 00:11:33;;;;;;;;;;;;;;;9.07;50.71;100770.69;4932550;28;98425;-70
2023/12/03 00:13:58;;;;;;;;;;;;;;;9.05;50.54;100764.78;4947794;28;98014;-65
2023/12/03 00:16:24;;;;;;;;;;;;;;;9.02;51.18;100765.25;4928699;28;119223;-70
2023/12/03 00:18:50;;;;;;;;;;;;;;;9.02;50.78;100767.16;4946363;28;126247;-70
2023/12/03 00:21:16;;;;;;;;;;;;;;;9.00;50.70;100775.47;4946856;28;98317;-65
2023/12/03 00:23:42;;;;;;;;;;;;;;;8.98;50.72;100777.59;4931580;28;130754;-65
2023/12/03 00:26:08;;;;;;;;;;;;;;;8.97;51.15;100780.53;4949733;28;128820;-70
2023/12/03 00:28:34;;;;;;;;;;;;;;;8.94;51.15;100779.16;4953550;28;99974;-65
2023/12/03 00:31:00;;;;;;;;;;;;;;;8.94;51.64;100786.41;4930143;28;98468;-65
2023/12/03 00:33:26;;;;;;;;;;;;;;;8.92;51.11;100792.03;4945163;28;118101;-70
2023/12/03 00:35:52;;;;;;;;;;;;;;;8.92;51.34;100793.88;4931004;28;98661;-65
2023/12/03 00:38:18;;;;;;;;;;;;;;;8.89;50.93;100800.59;4944797;28;98262;-66
2023/12/03 00:40:44;;;;;;;;;;;;;;;8.89;50.96;100800.59;4931408;28;98488;-70
2023/12/03 00:43:10;;;;;;;;;;;;;;;8.87;51.38;100802.69;4941687;28;125263;-70
2023/12/03 00:45:36;;;;;;;;;;;;;;;8.87;50.91;100804.56;4948080;28;127089;-70
2023/12/03 00:48:02;;;;;;;;;;;;;;;8.87;51.48;100801.88;4924172;28;104398;-70
2023/12/03 00:50:28;;;;;;;;;;;;;;;8.86;51.18;100798.38;4956317;28;98200;-65
2023/12/03 00:52:54;;;;;;;;;;;;;;;8.86;51.24;100801.06;4931925;28;98100;-70
2023/12/03 00:55:20;;;;;;;;;;;;;;;8.85;50.85;100804.84;4947483;28;98433;-70
2023/12/03 00:57:47;;;;;;;;;;;;;;;8.85;50.55;100805.66;4944652;28;130923;-70
2023/12/03 01:00:13;;;;;;;;;;;;;;;8.85;51.16;100804.84;4962904;28;98030;-70
2023/12/03 01:02:39;;;;;;;;;;;;;;;8.86;51.17;100809.16;4946126;28;112511;-70
2023/12/03 01:05:05;;;;;;;;;;;;;;;8.87;51.29;100818.81;4950254;28;98235;-65
2023/12/03 01:07:31;;;;;;;;;;;;;;;8.88;50.57;100811.56;4909438;28;114100;-66
2023/12/03 01:09:57;;;;;;;;;;;;;;;8.89;51.08;100813.22;4944433;28;99420;-65
2023/12/03 01:12:23;;;;;;;;;;;;;;;8.89;50.60;100821.28;4934960;28;98850;-70
2023/12/03 01:14:49;;;;;;;;;;;;;;;8.90;50.93;100821.03;4959633;28;98608;-65
2023/12/03 01:17:15;;;;;;;;;;;;;;;8.91;51.57;100819.97;4946830;28;126621;-65
2023/12/03 01:19:41;;;;;;;;;;;;;;;8.91;51.19;100819.97;4949948;28;98291;-65
2023/12/03 01:22:07;;;;;;;;;;;;;;;8.91;50.64;100825.34;4961543;27;97945;-70
2023/12/03 01:24:33;;;;;;;;;;;;;;;8.93;50.44;100830.50;4949850;28;98109;-65
2023/12/03 01:27:04;;;;;;;;;;;;;;;8.92;50.80;100832.38;4943271;28;98220;-70
2023/12/03 01:29:30;;;;;;;;;;;;;;;8.92;50.92;100828.84;4949315;28;98266;-65
2023/12/03 01:31:57;;;;;;;;;;;;;;;8.91;51.08;100832.59;4944452;28;98254;-65
2023/12/03 01:34:23;;;;;;;;;;;;;;;8.91;50.61;100841.47;4960448;28;99540;-65
2023/12/03 01:36:50;;;;;;;;;;;;;;;8.90;50.84;100844.41;4956811;28;104000;-65
2023/12/03 01:39:15;;;;;;;;;;;;;;;8.90;51.21;100844.41;4945242;28;97916;-65
2023/12/03 01:41:41;;;;;;;;;;;;;;;8.88;50.71;100844.66;4943434;28;125556;-70
2023/12/03 01:44:07;;;;;;;;;;;;;;;8.89;50.85;100848.19;4961807;28;101460;-70
2023/12/03 01:46:33;;;;;;;;;;;;;;;8.88;50.50;100846.53;4928743;28;98287;-70
2023/12/03 01:48:59;;;;;;;;;;;;;;;8.87;50.55;100843.03;4946097;28;98854;-70
2023/12/03 01:51:26;;;;;;;;;;;;;;;8.86;50.39;100852.16;4915853;28;129008;-72
2023/12/03 01:53:52;;;;;;;;;;;;;;;8.85;50.92;100839.78;4929290;28;98304;-65
2023/12/03 01:56:18;;;;;;;;;;;;;;;8.85;50.79;100842.47;4948319;28;115837;-65
2023/12/03 01:58:44;;;;;;;;;;;;;;;8.83;51.52;100844.56;4956297;28;112017;-65
2023/12/03 02:01:10;;;;;;;;;;;;;;;8.82;50.46;100851.03;4940584;28;127033;-65
2023/12/03 02:03:36;;;;;;;;;;;;;;;8.81;50.77;100852.09;4959846;28;100127;-65
2023/12/03 02:06:11;;;;;;;;;;;;;;;8.81;51.02;100862.84;4959081;28;98487;-70
2023/12/03 02:08:37;;;;;;;;;;;;;;;8.81;51.05;100860.16;4945709;28;98182;-70
2023/12/03 02:11:05;;;;;;;;;;;;;;;8.81;51.28;100862.84;4948432;28;99801;-70
2023/12/03 02:13:32;;;;;;;;;;;;;;;8.79;51.05;100860.38;4957413;28;99648;-71
2023/12/03 02:15:58;;;;;;;;;;;;;;;8.79;50.95;100864.94;4942491;28;99345;-65
2023/12/03 02:18:27;;;;;;;;;;;;;;;8.79;51.02;100857.69;4941704;28;117143;-70
2023/12/03 02:20:54;;;;;;;;;;;;;;;8.81;51.16;100863.66;4931220;28;98360;-65
2023/12/03 02:23:20;;;;;;;;;;;;;;;8.81;50.79;100869.03;4944813;28;123329;-65
2023/12/03 02:25:48;;;;;;;;;;;;;;;8.85;50.55;100870.16;4932472;28;99482;-65
2023/12/03 02:28:14;;;;;;;;;;;;;;;8.93;51.04;100873.50;4948250;28;98070;-70
2023/12/03 02:30:41;;;;;;;;;;;;;;;9.00;51.17;100876.81;4945908;28;127180;-70
2023/12/03 02:33:07;;;;;;;;;;;;;;;9.06;51.21;100881.22;4956992;28;99882;-70
2023/12/03 02:35:33;;;;;;;;;;;;;;;9.11;50.88;100878.59;4928897;28;129261;-70
2023/12/03 02:37:59;;;;;;;;;;;;;;;9.16;50.86;100886.75;4960532;28;98992;-71
2023/12/03 02:40:25;;;;;;;;;;;;;;;9.20;51.44;100884.38;4931596;28;98497;-71
2023/12/03 02:42:51;;;;;;;;;;;;;;;9.23;50.76;100889.25;4947597;28;126859;-70
2023/12/03 02:45:17;;;;;;;;;;;;;;;9.26;50.82;100894.13;4940212;28;99977;-71
2023/12/03 02:47:43;;;;;;;;;;;;;;;9.28;50.86;100890.16;4945714;28;99635;-71
2023/12/03 02:50:09;;;;;;;;;;;;;;;9.30;50.69;100884.50;4929015;28;100058;-66
2023/12/03 02:52:35;;;;;;;;;;;;;;;9.32;51.09;100891.28;4927372;28;119993;-65
2023/12/03 02:55:01;;;;;;;;;;;;;;;9.35;51.31;100898.03;4941928;28;107613;-71
2023/12/03 02:57:27;;;;;;;;;;;;;;;9.36;51.07;100898.84;4948569;28;98133;-71
2023/12/03 02:59:53;;;;;;;;;;;;;;;9.35;50.70;100892.63;4931373;28;130994;-66
2023/12/03 03:02:19;;;;;;;;;;;;;;;9.38;51.03;100905.59;4929113;28;98376;-71
2023/12/03 03:04:45;;;;;;;;;;;;;;;9.39;50.81;100901.03;4932009;28;116718;-71
2023/12/03 03:07:11;;;;;;;;;;;;;;;9.40;50.54;100908.88;4937076;28;112698;-70
2023/12/03 03:09:37;;;;;;;;;;;;;;;9.41;51.00;100905.13;4940248;28;122483;-66
2023/12/03 03:12:03;;;;;;;;;;;;;;;9.41;50.97;100901.59;4941537;28;126664;-71
2023/12/03 03:14:29;;;;;;;;;;;;;;;9.42;50.78;100903.22;4957941;28;98725;-66
2023/12/03 03:17:00;;;;;;;;;;;;;;;9.44;50.75;100903.81;4930293;28;98062;-67
2023/12/03 03:19:26;;;;;;;;;;;;;;;9.44;50.72;100901.13;4957373;28;113251;-71
2023/12/03 03:21:52;;;;;;;;;;;;;;;9.43;51.21;100905.69;4943657;28;127836;-70
2023/12/03 03:24:18;;;;;;;;;;;;;;;9.44;51.41;100903.81;4939854;28;98344;-70
2023/12/03 03:26:44;;;;;;;;;;;;;;;9.45;50.62;100910.81;4938506;28;99781;-66
2023/12/03 03:29:10;;;;;;;;;;;;;;;9.45;51.36;100917.00;4944560;28;98729;-71
2023/12/03 03:31:36;;;;;;;;;;;;;;;9.46;50.92;100920.50;4958873;28;98977;-71
2023/12/03 03:34:02;;;;;;;;;;;;;;;9.47;51.20;100919.44;4948804;28;99657;-70
2023/12/03 03:36:28;;;;;;;;;;;;;;;9.47;51.10;100928.34;4945764;28;98195;-65
2023/12/03 03:38:54;;;;;;;;;;;;;;;9.47;51.35;100922.97;4926454;28;99779;-66
2023/12/03 03:41:20;;;;;;;;;;;;;;;9.47;50.63;100931.03;4955372;28;128098;-71
2023/12/03 03:43:46;;;;;;;;;;;;;;;9.48;51.21;100934.53;4931262;28;110238;-71
2023/12/03 03:46:12;;;;;;;;;;;;;;;9.48;51.50;100931.84;4943743;28;97981;-71
2023/12/03 03:48:38;;;;;;;;;;;;;;;9.48;51.44;100938.03;4942832;28;130130;-70
2023/12/03 03:51:06;;;;;;;;;;;;;;;9.49;50.37;100939.66;4925508;28;128102;-71
2023/12/03 03:53:32;;;;;;;;;;;;;;;9.49;50.99;100936.16;4941714;28;99028;-71
2023/12/03 03:55:58;;;;;;;;;;;;;;;9.49;51.35;100939.66;4947126;28;113066;-71
2023/12/03 03:58:24;;;;;;;;;;;;;;;9.49;51.00;100942.34;4945004;28;99936;-66
2023/12/03 04:00:51;;;;;;;;;;;;;;;9.50;51.20;100943.16;4946377;28;98823;-66
2023/12/03 04:03:16;;;;;;;;;;;;;;;9.50;50.79;100943.97;4934421;28;108464;-66
2023/12/03 04:05:42;;;;;;;;;;;;;;;9.49;50.62;100945.03;4945006;28;112638;-66
2023/12/03 04:08:08;;;;;;;;;;;;;;;9.50;50.72;100943.16;4957198;28;98093;-71
2023/12/03 04:10:34;;;;;;;;;;;;;;;9.51;51.09;100942.94;4958047;28;124678;-71
2023/12/03 04:13:00;;;;;;;;;;;;;;;9.50;50.86;100941.28;4958721;28;98018;-66
2023/12/03 04:15:26;;;;;;;;;;;;;;;9.50;51.27;100943.97;4930497;28;99206;-71
2023/12/03 04:17:53;;;;;;;;;;;;;;;9.52;50.89;100944.56;4947927;28;99593;-71
2023/12/03 04:20:19;;;;;;;;;;;;;;;9.52;51.26;100941.06;4942215;28;98310;-71
2023/12/03 04:22:45;;;;;;;;;;;;;;;9.52;50.69;100949.13;4929580;28;99776;-70
2023/12/03 04:25:11;;;;;;;;;;;;;;;9.51;50.84;100945.63;4949154;28;98437;-66
2023/12/03 04:27:37;;;;;;;;;;;;;;;9.52;50.99;100946.44;4925905;28;98339;-71
2023/12/03 04:30:03;;;;;;;;;;;;;;;9.52;50.88;100943.75;4954950;28;100026;-70
2023/12/03 04:32:29;;;;;;;;;;;;;;;9.53;51.25;100954.25;4929159;28;99534;-70
2023/12/03 04:34:55;;;;;;;;;;;;;;;9.52;50.68;100944.56;4945013;28;111553;-65
2023/12/03 04:37:21;;;;;;;;;;;;;;;9.53;51.13;100951.56;4964065;28;98376;-65
2023/12/03 04:39:47;;;;;;;;;;;;;;;9.52;51.15;100949.94;4928258;28;117599;-70
2023/12/03 04:42:13;;;;;;;;;;;;;;;9.53;50.91;100961.50;4948182;28;130472;-66
2023/12/03 04:44:39;;;;;;;;;;;;;;;9.53;50.98;100956.94;4963489;28;105092;-65
2023/12/03 04:47:05;;;;;;;;;;;;;;;9.53;51.10;100967.72;4943609;28;100773;-72
2023/12/03 04:49:31;;;;;;;;;;;;;;;9.53;51.24;100966.91;4956507;28;98395;-66
2023/12/03 04:51:57;;;;;;;;;;;;;;;9.52;50.65;100965.28;4959650;28;127058;-71
2023/12/03 04:54:23;;;;;;;;;;;;;;;9.53;51.31;100967.72;4933629;28;110933;-66
2023/12/03 04:56:49;;;;;;;;;;;;;;;9.53;50.98;100966.91;4963592;28;105199;-72
2023/12/03 04:59:15;;;;;;;;;;;;;;;9.52;50.93;100962.59;4901267;28;125158;-71
2023/12/03 05:01:41;;;;;;;;;;;;;;;9.52;50.81;100963.41;4958550;28;98019;-65
2023/12/03 05:04:07;;;;;;;;;;;;;;;9.53;51.12;100967.72;4930228;28;112010;-66
2023/12/03 05:06:33;;;;;;;;;;;;;;;9.53;50.91;100978.47;4944789;28;129791;-65
2023/12/03 05:08:59;;;;;;;;;;;;;;;9.54;50.85;100980.09;4945674;28;113807;-66
2023/12/03 05:11:25;;;;;;;;;;;;;;;9.54;50.78;100977.41;4965456;28;116122;-71
2023/12/03 05:13:51;;;;;;;;;;;;;;;9.55;51.31;100983.63;4955424;28;109361;-66
2023/12/03 05:16:18;;;;;;;;;;;;;;;9.54;50.93;100982.78;4944708;28;100547;-71
2023/12/03 05:18:44;;;;;;;;;;;;;;;9.55;51.08;100989.00;4930334;28;99602;-66
2023/12/03 05:21:10;;;;;;;;;;;;;;;9.55;50.75;100987.13;4961626;28;98628;-71
2023/12/03 05:23:36;;;;;;;;;;;;;;;9.55;50.65;100991.69;4931896;28;98180;-66
2023/12/03 05:26:02;;;;;;;;;;;;;;;9.56;51.20;100994.13;4913770;28;98008;-71
2023/12/03 05:28:28;;;;;;;;;;;;;;;9.56;50.65;100996.81;4931573;28;118891;-71
2023/12/03 05:30:54;;;;;;;;;;;;;;;9.56;51.26;100999.50;4948593;28;126456;-65
2023/12/03 05:33:20;;;;;;;;;;;;;;;9.57;51.45;100995.75;4929472;28;98194;-66
2023/12/03 05:35:46;;;;;;;;;;;;;;;9.58;51.17;101004.63;4925465;28;114651;-71
2023/12/03 05:38:12;;;;;;;;;;;;;;;9.58;51.11;101005.44;4954971;28;98838;-66
2023/12/03 05:40:38;;;;;;;;;;;;;;;9.59;51.28;100998.22;4945832;28;98261;-71
2023/12/03 05:43:05;;;;;;;;;;;;;;;9.59;50.89;101014.38;4957575;28;98242;-66
2023/12/03 05:45:31;;;;;;;;;;;;;;;9.59;51.18;101003.59;4959060;28;107863;-71
2023/12/03 05:47:57;;;;;;;;;;;;;;;9.58;50.89;101000.06;4959976;28;98186;-71
2023/12/03 05:50:23;;;;;;;;;;;;;;;9.60;50.94;101016.00;4947287;28;99253;-66
2023/12/03 05:52:48;;;;;;;;;;;;;;;9.60;50.57;101021.38;4960932;28;98134;-65
2023/12/03 05:55:15;;;;;;;;;;;;;;;9.60;50.68;101021.38;4953120;28;98151;-71
2023/12/03 05:57:40;;;;;;;;;;;;;;;9.60;50.86;101032.13;4947500;28;98591;-71
2023/12/03 06:00:07;;;;;;;;;;;;;;;9.59;50.60;101030.50;4941550;28;113609;-71
2023/12/03 06:02:36;;;;;;;;;;;;;;;9.60;50.74;101037.53;4961978;28;98140;-70
2023/12/03 06:05:02;;;;;;;;;;;;;;;9.59;50.83;101034.03;4945127;28;126752;-71
2023/12/03 06:07:28;;;;;;;;;;;;;;;9.59;50.79;101031.31;4914839;28;108124;-70
2023/12/03 06:09:54;;;;;;;;;;;;;;;9.61;50.60;101030.25;4926274;28;128360;-65
2023/12/03 06:12:20;;;;;;;;;;;;;;;9.61;51.11;101027.56;4948267;28;98073;-65
2023/12/03 06:14:46;;;;;;;;;;;;;;;9.61;50.91;101031.06;4954004;28;127705;-71
2023/12/03 06:17:12;;;;;;;;;;;;;;;9.60;50.86;101026.75;4922369;28;112948;-66
2023/12/03 06:19:38;;;;;;;;;;;;;;;9.61;51.18;101027.56;4899581;28;111347;-65
2023/12/03 06:22:05;;;;;;;;;;;;;;;9.61;51.24;101028.38;4954338;28;99070;-70
2023/12/03 06:24:31;;;;;;;;;;;;;;;9.61;50.82;101030.25;4925527;28;98444;-71
2023/12/03 06:26:57;;;;;;;;;;;;;;;9.61;50.95;101036.44;4924307;28;115348;-65
2023/12/03 06:29:22;;;;;;;;;;;;;;;9.59;50.67;101034.03;4941326;28;129398;-70
2023/12/03 06:31:48;;;;;;;;;;;;;;;9.61;50.90;101049.91;4944369;28;98260;-71
2023/12/03 06:34:15;;;;;;;;;;;;;;;9.61;50.70;101046.41;4927398;28;103296;-70
2023/12/03 06:36:41;;;;;;;;;;;;;;;9.61;50.75;101049.09;4929049;28;98550;-71
2023/12/03 06:39:07;;;;;;;;;;;;;;;9.61;50.94;101054.47;4922429;28;126179;-70
2023/12/03 06:41:34;;;;;;;;;;;;;;;9.62;51.31;101053.41;4938711;28;98881;-66
2023/12/03 06:44:00;;;;;;;;;;;;;;;9.63;51.23;101055.03;4905723;28;98042;-65
2023/12/03 06:46:26;;;;;;;;;;;;;;;9.63;51.04;101055.03;4922811;28;99711;-72
2023/12/03 06:48:52;;;;;;;;;;;;;;;9.64;51.26;101067.47;4936834;28;98262;-71
2023/12/03 06:51:18;;;;;;;;;;;;;;;9.64;51.07;101072.84;4921974;28;98426;-66
2023/12/03 06:53:44;;;;;;;;;;;;;;;9.65;51.28;101074.47;4920795;28;122230;-67
2023/12/03 06:56:10;;;;;;;;;;;;;;;9.65;51.46;101080.66;4910774;28;97938;-65
2023/12/03 06:58:37;;;;;;;;;;;;;;;9.66;50.83;101084.16;4948717;28;98467;-70
2023/12/03 07:01:03;;;;;;;;;;;;;;;9.66;51.06;101078.78;4933683;28;98851;-65
2023/12/03 07:03:29;;;;;;;;;;;;;;;9.67;50.90;101086.63;4960833;28;98778;-70
2023/12/03 07:05:55;;;;;;;;;;;;;;;9.67;51.03;101089.31;4951550;28;112158;-65
2023/12/03 07:08:21;;;;;;;;;;;;;;;9.69;50.92;101086.38;4924267;28;111314;-70
2023/12/03 07:10:47;;;;;;;;;;;;;;;9.71;50.62;101089.66;4954392;28;98189;-65
2023/12/03 07:13:13;;;;;;;;;;;;;;;9.71;50.82;101092.34;4938308;28;98419;-65
2023/12/03 07:15:39;;;;;;;;;;;;;;;9.74;50.75;101095.31;4910392;28;99583;-66
2023/12/03 07:18:05;;;;;;;;;;;;;;;9.75;51.21;101090.78;4933250;28;129656;-71
2023/12/03 07:20:31;;;;;;;;;;;;;;;9.77;50.73;101104.78;4902466;28;98439;-71
2023/12/03 07:22:57;;;;;;;;;;;;;;;9.79;50.90;101105.38;4925723;28;103018;-71
2023/12/03 07:25:23;;;;;;;;;;;;;;;9.81;51.14;101111.31;4956150;28;99056;-70
2023/12/03 07:27:50;;;;;;;;;;;;;;;9.82;50.73;101113.78;4937144;28;126580;-71
2023/12/03 07:30:16;;;;;;;;;;;;;;;9.86;51.08;101111.38;4923732;28;98080;-65
2023/12/03 07:32:42;;;;;;;;;;;;;;;9.88;50.62;101113.84;4935404;28;98714;-65
2023/12/03 07:35:08;;;;;;;;;;;;;;;9.91;51.10;101110.66;4945322;28;99599;-70
2023/12/03 07:37:34;;;;;;;;;;;;;;;9.92;50.76;101117.69;4943774;28;108216;-65
2023/12/03 07:40:00;;;;;;;;;;;;;;;9.95;51.11;101114.50;4925180;28;98311;-66
2023/12/03 07:42:26;;;;;;;;;;;;;;;9.95;50.89;101115.31;4942467;28;104487;-66
2023/12/03 07:44:52;;;;;;;;;;;;;;;9.98;50.52;101124.75;4941372;28;113753;-71
2023/12/03 07:47:18;;;;;;;;;;;;;;;10.00;50.41;101126.16;4923119;28;127005;-71
2023/12/03 07:49:44;;;;;;;;;;;;;;;10.02;51.00;101124.03;4940995;28;99123;-71
2023/12/03 07:52:10;;;;;;;;;;;;;;;10.04;50.46;101127.28;4924542;28;122787;-66
2023/12/03 07:54:36;;;;;;;;;;;;;;;10.07;51.09;101125.97;4939089;28;100405;-71
2023/12/03 07:57:02;;;;;;;;;;;;;;;10.09;50.68;101123.84;4925428;28;99069;-66
2023/12/03 07:59:29;;;;;;;;;;;;;;;10.13;50.60;101126.84;4943383;28;98777;-65
2023/12/03 08:01:55;;;;;;;;;;;;;;;10.15;50.54;101127.44;4926547;28;98069;-71
2023/12/03 08:04:21;;;;;;;;;;;;;;;10.18;50.85;101127.75;4955172;28;113017;-66
2023/12/03 08:06:47;;;;;;;;;;;;;;;10.20;50.57;101132.88;4920307;28;128835;-71
2023/12/03 08:09:13;;;;;;;;;;;;;;;10.23;50.68;101137.78;4942595;28;98201;-66
2023/12/03 08:11:39;;;;;;;;;;;;;;;10.25;50.93;101122.19;4942335;28;99964;-66
2023/12/03 08:14:05;;;;;;;;;;;;;;;10.28;50.63;101132.50;4925326;28;130722;-71
2023/12/03 08:16:31;;;;;;;;;;;;;;;10.31;50.45;101129.31;4938328;28;113702;-72
2023/12/03 08:18:58;;;;;;;;;;;;;;;10.33;50.47;101129.84;4957158;28;99569;-71
2023/12/03 08:21:24;;;;;;;;;;;;;;;10.36;50.88;101136.63;4956177;28;100134;-72
2023/12/03 08:23:51;;;;;;;;;;;;;;;10.38;50.80;101127.25;4921243;28;99458;-71
2023/12/03 08:26:17;;;;;;;;;;;;;;;10.38;50.70;101124.56;4938830;28;99253;-66
2023/12/03 08:28:43;;;;;;;;;;;;;;;10.40;50.58;101141.28;4940926;28;97998;-71
2023/12/03 08:31:10;;;;;;;;;;;;;;;10.43;50.80;101139.97;4941221;28;98415;-72
2023/12/03 08:33:36;;;;;;;;;;;;;;;10.47;50.52;101144.59;4926998;28;98511;-72
2023/12/03 08:36:02;;;;;;;;;;;;;;;10.53;50.88;101145.47;4940622;28;130483;-66
2023/12/03 08:38:28;;;;;;;;;;;;;;;10.57;50.44;101141.22;4947176;28;98348;-71
2023/12/03 08:40:54;;;;;;;;;;;;;;;10.62;50.48;101141.28;4941407;28;128012;-72
2023/12/03 08:43:20;;;;;;;;;;;;;;;10.67;50.46;101138.66;4927613;28;109356;-66
2023/12/03 08:45:46;;;;;;;;;;;;;;;10.73;50.59;101142.22;4957895;28;98230;-71
2023/12/03 08:48:11;;;;;;;;;;;;;;;10.78;50.51;101148.50;4925894;28;99592;-72
2023/12/03 08:50:38;;;;;;;;;;;;;;;10.82;50.49;101155.00;4929016;28;99056;-66
2023/12/03 08:53:03;;;;;;;;;;;;;;;10.84;50.46;101152.03;4946124;28;98165;-72
2023/12/03 08:55:31;;;;;;;;;;;;;;;10.88;50.55;101155.06;4909352;28;127648;-71
2023/12/03 08:57:57;;;;;;;;;;;;;;;10.87;50.70;101148.84;4945902;28;98302;-66
2023/12/03 09:00:23;;;;;;;;;;;;;;;10.88;50.39;101158.56;4925241;28;98909;-66
2023/12/03 09:02:49;;;;;;;;;;;;;;;10.90;50.45;101153.75;4944047;28;112400;-71
2023/12/03 09:05:15;;;;;;;;;;;;;;;10.95;50.54;101158.38;4934764;28;125365;-71
2023/12/03 09:07:41;;;;;;;;;;;;;;;10.99;50.45;101160.31;4958980;28;98322;-65
2023/12/03 09:10:08;;;;;;;;;;;;;;;11.03;50.40;101161.44;4937097;28;98234;-66
2023/12/03 09:12:34;;;;;;;;;;;;;;;11.10;50.29;101158.56;4942936;28;101328;-71
2023/12/03 09:15:00;;;;;;;;;;;;;;;11.22;50.60;101161.09;4943651;28;100599;-66
2023/12/03 09:17:26;;;;;;;;;;;;;;;11.26;50.41;101162.22;4923222;28;98550;-71
2023/12/03 09:19:52;;;;;;;;;;;;;;;11.27;50.31;101169.22;4940712;28;98395;-66
2023/12/03 09:22:18;;;;;;;;;;;;;;;11.31;50.38;101170.34;4927717;28;121211;-71
2023/12/03 09:24:44;;;;;;;;;;;;;;;11.39;50.34;101164.50;4944596;28;128708;-66
2023/12/03 09:27:10;;;;;;;;;;;;;;;11.47;50.21;101172.13;4925392;28;98313;-71
2023/12/03 09:29:36;;;;;;;;;;;;;;;11.46;50.40;101175.91;4958190;28;112950;-72
2023/12/03 09:32:04;;;;;;;;;;;;;;;11.40;50.53;101174.25;4935546;28;98314;-66
2023/12/03 09:34:30;;;;;;;;;;;;;;;11.36;50.51;101178.53;4944208;28;98182;-72
2023/12/03 09:36:57;;;;;;;;;;;;;;;11.38;50.47;101176.38;4957871;28;98526;-67
2023/12/03 09:39:23;;;;;;;;;;;;;;;11.41;50.44;101175.88;4926148;28;100050;-73
2023/12/03 09:41:50;;;;;;;;;;;;;;;11.45;50.53;101173.47;4936862;28;99676;-72
2023/12/03 09:44:20;;;;;;;;;;;;;;;11.45;50.45;101166.19;4941988;28;98072;-72
2023/12/03 09:46:46;;;;;;;;;;;;;;;11.46;50.60;101175.09;4947476;28;98139;-72
2023/12/03 09:49:12;;;;;;;;;;;;;;;11.46;50.47;101164.28;4927784;28;100166;-72
2023/12/03 09:51:40;;;;;;;;;;;;;;;11.48;50.49;101171.06;4942518;28;98297;-72
2023/12/03 09:54:07;;;;;;;;;;;;;;;11.47;50.51;101177.53;4939528;28;98160;-72
2023/12/03 09:56:33;;;;;;;;;;;;;;;11.46;50.58;101173.19;4946809;28;98316;-72
2023/12/03 09:58:59;;;;;;;;;;;;;;;11.48;50.62;101171.06;4940666;28;119224;-72
2023/12/03 10:01:25;;;;;;;;;;;;;;;11.49;50.53;101178.09;4920514;28;99715;-66
2023/12/03 10:03:54;;;;;;;;;;;;;;;11.52;50.42;101180.28;4920021;28;99623;-72
2023/12/03 10:06:23;;;;;;;;;;;;;;;11.53;50.41;101173.00;4937435;28;98151;-72
2023/12/03 10:08:50;;;;;;;;;;;;;;;11.51;50.56;101178.66;4942052;28;98385;-66
2023/12/03 10:11:22;;;;;;;;;;;;;;;11.50;50.45;101185.13;4925040;28;119885;-67
2023/12/03 10:13:50;;;;;;;;;;;;;;;11.51;50.55;101175.13;4941571;28;98827;-72
2023/12/03 10:16:16;;;;;;;;;;;;;;;11.52;50.47;101180.28;4947739;28;98743;-72
2023/12/03 10:18:43;;;;;;;;;;;;;;;11.53;50.62;101178.41;4922228;28;98042;-67
2023/12/03 10:21:09;;;;;;;;;;;;;;;11.52;50.56;101182.19;4914683;28;98768;-72
2023/12/03 10:23:35;;;;;;;;;;;;;;;11.49;50.57;101178.09;4938172;28;98932;-72
2023/12/03 10:26:15;;;;;;;;;;;;;;;11.46;50.72;101181.31;4919874;28;98402;-72
2023/12/03 10:28:41;;;;;;;;;;;;;;;11.43;50.72;101183.69;4924274;28;98059;-68
2023/12/03 10:31:13;;;;;;;;;;;;;;;11.42;50.70;101184.78;4947344;28;98327;-72
2023/12/03 10:33:39;;;;;;;;;;;;;;;11.40;50.67;101189.63;4937371;28;119146;-66
2023/12/03 10:36:05;;;;;;;;;;;;;;;11.38;50.83;101197.97;4900896;28;98207;-72
2023/12/03 10:38:38;;;;;;;;;;;;;;;11.35;50.78;101194.94;4902397;28;98104;-72
2023/12/03 10:41:08;;;;;;;;;;;;;;;11.32;50.66;101196.28;4935811;28;98619;-66
2023/12/03 10:43:35;;;;;;;;;;;;;;;11.31;50.74;101197.34;4924997;28;99245;-72
2023/12/03 10:46:13;;;;;;;;;;;;;;;11.29;50.69;101200.31;4934923;28;98197;-72
2023/12/03 10:48:39;;;;;;;;;;;;;;;11.29;50.81;101200.31;4920247;28;98135;-72
2023/12/03 10:51:07;;;;;;;;;;;;;;;11.29;50.91;101196.81;4916669;28;100133;-73
2023/12/03 10:53:33;;;;;;;;;;;;;;;11.29;50.77;101197.59;4935709;28;98334;-71
2023/12/03 10:56:04;;;;;;;;;;;;;;;11.30;50.75;101193.03;4917447;28;98111;-72
2023/12/03 10:58:33;;;;;;;;;;;;;;;11.29;50.84;101194.09;4936112;28;98411;-66
2023/12/03 11:01:05;;;;;;;;;;;;;;;11.29;50.74;101197.59;4913487;28;100388;-66
2023/12/03 11:03:51;;;;;;;;;;;;;;;11.29;50.86;101196.81;4920118;28;113962;-66
2023/12/03 11:06:17;;;;;;;;;;;;;;;11.27;50.77;101202.44;4936780;28;98199;-72
2023/12/03 11:08:47;;;;;;;;;;;;;;;11.26;50.93;101202.69;4919500;28;130729;-72
2023/12/03 11:11:13;;;;;;;;;;;;;;;11.25;50.87;101203.78;4931220;28;99542;-71
2023/12/03 11:13:41;;;;;;;;;;;;;;;11.26;51.02;101206.22;4951155;28;98292;-66
2023/12/03 11:16:07;;;;;;;;;;;;;;;11.28;50.86;101204.09;4922988;28;98419;-66
2023/12/03 11:18:34;;;;;;;;;;;;;;;11.34;50.73;101204.13;4921061;28;107177;-66
2023/12/03 11:21:33;;;;;;;;;;;;;;;11.37;50.64;101209.03;4914818;28;99108;-66
2023/12/03 11:24:25;;;;;;;;;;;;;;;11.39;50.74;101201.47;4926692;28;98299;-72
2023/12/03 11:26:51;;;;;;;;;;;;;;;11.38;50.69;101210.66;4928212;28;98006;-66
2023/12/03 11:29:17;;;;;;;;;;;;;;;11.38;50.73;101208.75;4920276;28;108012;-72
2023/12/03 11:31:43;;;;;;;;;;;;;;;11.38;50.69;101214.16;4934034;28;98151;-66
2023/12/03 11:34:10;;;;;;;;;;;;;;;11.39;50.66;101209.56;4899660;28;99343;-66
2023/12/03 11:36:43;;;;;;;;;;;;;;;11.39;50.87;101204.97;4906576;28;101479;-66
2023/12/03 11:39:08;;;;;;;;;;;;;;;11.42;50.72;101203.66;4919361;28;99341;-72
2023/12/03 11:41:38;;;;;;;;;;;;;;;11.46;50.83;101218.28;4954646;28;98230;-66
2023/12/03 11:44:24;;;;;;;;;;;;;;;11.53;50.74;101213.50;4909301;28;100074;-72
2023/12/03 11:47:00;;;;;;;;;;;;;;;11.57;50.64;101213.81;4921806;28;98371;-66
2023/12/03 11:49:31;;;;;;;;;;;;;;;11.58;50.59;101212.72;4915508;28;98297;-71
2023/12/03 11:51:57;;;;;;;;;;;;;;;11.57;50.86;101219.22;4915256;28;100756;-66
2023/12/03 11:54:28;;;;;;;;;;;;;;;11.54;50.85;101220.53;4936244;28;126914;-72
2023/12/03 11:56:54;;;;;;;;;;;;;;;11.53;50.74;101224.31;4950454;28;98509;-72
2023/12/03 11:59:21;;;;;;;;;;;;;;;11.51;50.67;101223.72;4938108;28;98204;-66
2023/12/03 12:01:47;;;;;;;;;;;;;;;11.52;50.86;101223.50;4938436;28;111650;-72
2023/12/03 12:04:23;;;;;;;;;;;;;;;11.56;50.61;101221.09;4912583;28;129397;-66
2023/12/03 12:06:53;;;;;;;;;;;;;;;11.60;50.56;101218.69;4922180;28;98760;-72
2023/12/03 12:09:23;;;;;;;;;;;;;;;11.63;50.79;101213.59;4941949;28;98024;-66
2023/12/03 12:11:52;;;;;;;;;;;;;;;11.67;50.63;101222.81;4942387;28;99882;-72
2023/12/03 12:14:18;;;;;;;;;;;;;;;11.73;50.56;101215.56;4940210;28;98673;-72
2023/12/03 12:16:47;;;;;;;;;;;;;;;11.74;50.52;101215.31;4927665;28;97988;-72
2023/12/03 12:19:13;;;;;;;;;;;;;;;11.76;50.61;101223.16;4944031;28;115852;-72
2023/12/03 12:21:56;;;;;;;;;;;;;;;11.75;50.69;101224.22;4960686;28;98041;-66
2023/12/03 12:24:22;;;;;;;;;;;;;;;11.72;50.62;101227.47;4922020;28;98178;-66
2023/12/03 12:26:51;;;;;;;;;;;;;;;11.69;50.84;101225.25;4923447;28;98175;-71
2023/12/03 12:29:18;;;;;;;;;;;;;;;11.63;50.83;101223.56;4949198;28;98737;-66
2023/12/03 12:31:46;;;;;;;;;;;;;;;11.60;50.91;101226.81;4940045;28;98242;-72
2023/12/03 12:34:13;;;;;;;;;;;;;;;11.57;50.66;101228.13;4934568;28;98403;-66
2023/12/03 12:36:43;;;;;;;;;;;;;;;11.57;50.83;101225.41;4906573;28;98043;-66